sensor_id;sensor_type;location;lat;lon;timestamp;temperature;humidity
70234;DHT22;57622;42.630;23.378;2022-08-25T00:00:41;22.19;70.97
70234;DHT22;57622;42.630;23.378;2022-08-25T00:03:06;22.22;70.98
70234;DHT22;57622;42.630;23.378;2022-08-25T00:05:32;22.23;70.89
70234;DHT22;57622;42.630;23.378;2022-08-25T00:07:58;22.13;71.18
70234;DHT22;57622;42.630;23.378;2022-08-25T00:10:24;22.17;71.19
70234;DHT22;57622;42.630;23.378;2022-08-25T00:12:50;22.16;71.08
70234;DHT22;57622;42.630;23.378;2022-08-25T00:15:15;22.20;71.09
70234;DHT22;57622;42.630;23.378;2022-08-25T00:17:41;22.16;71.20
70234;DHT22;57622;42.630;23.378;2022-08-25T00:20:07;22.23;71.07
70234;DHT22;57622;42.630;23.378;2022-08-25T00:22:34;22.28;70.92
70234;DHT22;57622;42.630;23.378;2022-08-25T00:25:00;22.20;71.00
70234;DHT22;57622;42.630;23.378;2022-08-25T00:27:26;22.17;71.24
70234;DHT22;57622;42.630;23.378;2022-08-25T00:29:52;22.16;71.11
70234;DHT22;57622;42.630;23.378;2022-08-25T00:32:18;22.09;71.41
70234;DHT22;57622;42.630;23.378;2022-08-25T00:34:44;22.09;71.45
70234;DHT22;57622;42.630;23.378;2022-08-25T00:37:10;22.12;71.28
70234;DHT22;57622;42.630;23.378;2022-08-25T00:39:37;22.16;71.43
70234;DHT22;57622;42.630;23.378;2022-08-25T00:42:04;22.13;71.33
70234;DHT22;57622;42.630;23.378;2022-08-25T00:44:31;22.10;71.37
70234;DHT22;57622;42.630;23.378;2022-08-25T00:46:58;22.13;71.30
70234;DHT22;57622;42.630;23.378;2022-08-25T00:49:54;22.13;71.47
70234;DHT22;57622;42.630;23.378;2022-08-25T00:52:24;22.03;71.83
70234;DHT22;57622;42.630;23.378;2022-08-25T00:54:59;22.10;71.67
70234;DHT22;57622;42.630;23.378;2022-08-25T00:57:33;22.19;71.20
70234;DHT22;57622;42.630;23.378;2022-08-25T01:00:04;22.16;71.36
70234;DHT22;57622;42.630;23.378;2022-08-25T01:02:29;22.20;71.33
70234;DHT22;57622;42.630;23.378;2022-08-25T01:04:55;22.16;71.55
70234;DHT22;57622;42.630;23.378;2022-08-25T01:07:20;22.23;71.29
70234;DHT22;57622;42.630;23.378;2022-08-25T01:09:49;22.22;71.16
70234;DHT22;57622;42.630;23.378;2022-08-25T01:12:16;22.16;71.41
70234;DHT22;57622;42.630;23.378;2022-08-25T01:14:43;22.15;71.40
70234;DHT22;57622;42.630;23.378;2022-08-25T01:17:11;22.15;71.39
70234;DHT22;57622;42.630;23.378;2022-08-25T01:19:36;22.16;71.35
70234;DHT22;57622;42.630;23.378;2022-08-25T01:22:02;22.20;71.32
70234;DHT22;57622;42.630;23.378;2022-08-25T01:24:39;22.28;71.06
70234;DHT22;57622;42.630;23.378;2022-08-25T01:27:08;22.28;71.02
70234;DHT22;57622;42.630;23.378;2022-08-25T01:29:35;22.23;71.20
70234;DHT22;57622;42.630;23.378;2022-08-25T01:32:04;22.25;71.22
70234;DHT22;57622;42.630;23.378;2022-08-25T01:34:34;22.26;71.28
70234;DHT22;57622;42.630;23.378;2022-08-25T01:36:59;22.32;71.06
70234;DHT22;57622;42.630;23.378;2022-08-25T01:39:27;22.42;70.80
70234;DHT22;57622;42.630;23.378;2022-08-25T01:44:35;22.37;70.97
70234;DHT22;57622;42.630;23.378;2022-08-25T01:47:02;22.35;71.12
70234;DHT22;57622;42.630;23.378;2022-08-25T01:49:28;22.35;71.11
70234;DHT22;57622;42.630;23.378;2022-08-25T01:52:45;22.40;70.94
70234;DHT22;57622;42.630;23.378;2022-08-25T01:54:45;22.40;70.98
70234;DHT22;57622;42.630;23.378;2022-08-25T01:57:11;22.46;70.76
70234;DHT22;57622;42.630;23.378;2022-08-25T01:59:37;22.42;70.92
70234;DHT22;57622;42.630;23.378;2022-08-25T02:02:03;22.43;70.74
70234;DHT22;57622;42.630;23.378;2022-08-25T02:04:29;22.40;70.88
70234;DHT22;57622;42.630;23.378;2022-08-25T02:06:57;22.44;70.97
70234;DHT22;57622;42.630;23.378;2022-08-25T02:09:23;22.49;70.83
70234;DHT22;57622;42.630;23.378;2022-08-25T02:11:49;22.47;70.88
70234;DHT22;57622;42.630;23.378;2022-08-25T02:14:15;22.42;71.04
70234;DHT22;57622;42.630;23.378;2022-08-25T02:16:45;22.37;71.20
70234;DHT22;57622;42.630;23.378;2022-08-25T02:19:12;22.37;71.09
70234;DHT22;57622;42.630;23.378;2022-08-25T02:21:38;22.40;71.14
70234;DHT22;57622;42.630;23.378;2022-08-25T02:24:04;22.28;71.52
70234;DHT22;57622;42.630;23.378;2022-08-25T02:26:30;22.26;71.48
70234;DHT22;57622;42.630;23.378;2022-08-25T02:28:56;22.26;71.66
70234;DHT22;57622;42.630;23.378;2022-08-25T02:31:23;22.35;71.86
70234;DHT22;57622;42.630;23.378;2022-08-25T02:33:50;22.39;71.54
70234;DHT22;57622;42.630;23.378;2022-08-25T02:36:16;22.30;71.66
70234;DHT22;57622;42.630;23.378;2022-08-25T02:38:41;22.15;72.14
70234;DHT22;57622;42.630;23.378;2022-08-25T02:41:11;22.12;72.29
70234;DHT22;57622;42.630;23.378;2022-08-25T02:43:39;22.08;72.57
70234;DHT22;57622;42.630;23.378;2022-08-25T02:46:06;22.15;72.53
70234;DHT22;57622;42.630;23.378;2022-08-25T02:48:31;22.05;72.47
70234;DHT22;57622;42.630;23.378;2022-08-25T02:50:59;22.03;72.56
70234;DHT22;57622;42.630;23.378;2022-08-25T02:53:26;22.08;72.55
70234;DHT22;57622;42.630;23.378;2022-08-25T02:55:52;22.06;72.29
70234;DHT22;57622;42.630;23.378;2022-08-25T02:58:17;21.98;72.92
70234;DHT22;57622;42.630;23.378;2022-08-25T03:00:43;21.94;72.53
70234;DHT22;57622;42.630;23.378;2022-08-25T03:03:10;21.85;72.83
70234;DHT22;57622;42.630;23.378;2022-08-25T03:05:36;21.86;72.71
70234;DHT22;57622;42.630;23.378;2022-08-25T03:08:03;21.84;73.04
70234;DHT22;57622;42.630;23.378;2022-08-25T03:10:29;21.85;72.81
70234;DHT22;57622;42.630;23.378;2022-08-25T03:12:54;21.78;72.89
70234;DHT22;57622;42.630;23.378;2022-08-25T03:15:20;21.79;72.82
70234;DHT22;57622;42.630;23.378;2022-08-25T03:17:46;21.81;72.85
70234;DHT22;57622;42.630;23.378;2022-08-25T03:20:14;21.79;72.86
70234;DHT22;57622;42.630;23.378;2022-08-25T03:22:40;21.78;72.89
70234;DHT22;57622;42.630;23.378;2022-08-25T03:25:07;21.81;72.77
70234;DHT22;57622;42.630;23.378;2022-08-25T03:27:51;21.84;72.49
70234;DHT22;57622;42.630;23.378;2022-08-25T03:30:17;21.75;72.75
70234;DHT22;57622;42.630;23.378;2022-08-25T03:32:43;21.74;72.77
70234;DHT22;57622;42.630;23.378;2022-08-25T03:35:09;21.71;72.81
70234;DHT22;57622;42.630;23.378;2022-08-25T03:37:35;21.66;72.95
70234;DHT22;57622;42.630;23.378;2022-08-25T03:40:06;21.61;73.66
70234;DHT22;57622;42.630;23.378;2022-08-25T03:42:33;21.59;73.67
70234;DHT22;57622;42.630;23.378;2022-08-25T03:45:02;21.61;73.33
70234;DHT22;57622;42.630;23.378;2022-08-25T03:47:28;21.57;73.38
70234;DHT22;57622;42.630;23.378;2022-08-25T03:49:54;21.62;73.19
70234;DHT22;57622;42.630;23.378;2022-08-25T03:52:20;21.66;72.97
70234;DHT22;57622;42.630;23.378;2022-08-25T03:54:46;21.71;72.98
70234;DHT22;57622;42.630;23.378;2022-08-25T03:57:11;21.73;72.83
70234;DHT22;57622;42.630;23.378;2022-08-25T03:59:37;21.71;72.98
70234;DHT22;57622;42.630;23.378;2022-08-25T04:02:06;21.66;73.03
70234;DHT22;57622;42.630;23.378;2022-08-25T04:04:32;21.64;73.30
70234;DHT22;57622;42.630;23.378;2022-08-25T04:06:58;21.64;73.22
70234;DHT22;57622;42.630;23.378;2022-08-25T04:09:24;21.68;73.41
70234;DHT22;57622;42.630;23.378;2022-08-25T04:11:50;21.81;73.15
70234;DHT22;57622;42.630;23.378;2022-08-25T04:14:16;21.77;73.21
70234;DHT22;57622;42.630;23.378;2022-08-25T04:16:43;21.82;73.05
70234;DHT22;57622;42.630;23.378;2022-08-25T04:19:09;21.77;72.96
70234;DHT22;57622;42.630;23.378;2022-08-25T04:21:36;21.81;73.16
70234;DHT22;57622;42.630;23.378;2022-08-25T04:24:04;21.85;73.14
70234;DHT22;57622;42.630;23.378;2022-08-25T04:26:34;21.86;72.96
70234;DHT22;57622;42.630;23.378;2022-08-25T04:29:03;21.85;72.82
70234;DHT22;57622;42.630;23.378;2022-08-25T04:31:29;21.85;72.63
70234;DHT22;57622;42.630;23.378;2022-08-25T04:33:55;21.94;72.43
70234;DHT22;57622;42.630;23.378;2022-08-25T04:36:21;21.99;72.13
70234;DHT22;57622;42.630;23.378;2022-08-25T04:38:48;21.98;72.35
70234;DHT22;57622;42.630;23.378;2022-08-25T04:41:16;21.98;72.39
70234;DHT22;57622;42.630;23.378;2022-08-25T04:43:43;22.05;72.66
70234;DHT22;57622;42.630;23.378;2022-08-25T04:46:18;22.08;72.14
70234;DHT22;57622;42.630;23.378;2022-08-25T04:48:45;22.09;72.22
70234;DHT22;57622;42.630;23.378;2022-08-25T04:51:13;22.12;72.10
70234;DHT22;57622;42.630;23.378;2022-08-25T04:53:40;22.16;72.73
70234;DHT22;57622;42.630;23.378;2022-08-25T04:56:11;22.29;72.44
70234;DHT22;57622;42.630;23.378;2022-08-25T04:58:37;22.30;72.24
70234;DHT22;57622;42.630;23.378;2022-08-25T05:01:04;22.40;71.89
70234;DHT22;57622;42.630;23.378;2022-08-25T05:03:31;22.40;71.75
70234;DHT22;57622;42.630;23.378;2022-08-25T05:05:57;22.40;71.67
70234;DHT22;57622;42.630;23.378;2022-08-25T05:08:22;22.35;71.69
70234;DHT22;57622;42.630;23.378;2022-08-25T05:10:48;22.33;71.51
70234;DHT22;57622;42.630;23.378;2022-08-25T05:13:14;22.36;71.43
70234;DHT22;57622;42.630;23.378;2022-08-25T05:15:40;22.36;71.31
70234;DHT22;57622;42.630;23.378;2022-08-25T05:18:16;22.33;71.56
70234;DHT22;57622;42.630;23.378;2022-08-25T05:20:41;22.32;71.40
70234;DHT22;57622;42.630;23.378;2022-08-25T05:23:07;22.30;71.45
70234;DHT22;57622;42.630;23.378;2022-08-25T05:25:33;22.40;71.35
70234;DHT22;57622;42.630;23.378;2022-08-25T05:27:58;22.40;70.74
70234;DHT22;57622;42.630;23.378;2022-08-25T05:30:24;22.40;70.85
70234;DHT22;57622;42.630;23.378;2022-08-25T05:32:49;22.52;70.83
70234;DHT22;57622;42.630;23.378;2022-08-25T05:35:15;22.46;71.17
70234;DHT22;57622;42.630;23.378;2022-08-25T05:37:41;22.49;71.49
70234;DHT22;57622;42.630;23.378;2022-08-25T05:40:07;22.57;70.60
70234;DHT22;57622;42.630;23.378;2022-08-25T05:42:33;22.57;70.85
70234;DHT22;57622;42.630;23.378;2022-08-25T05:44:59;22.63;70.00
70234;DHT22;57622;42.630;23.378;2022-08-25T05:47:25;22.60;70.02
70234;DHT22;57622;42.630;23.378;2022-08-25T05:49:51;22.60;70.15
70234;DHT22;57622;42.630;23.378;2022-08-25T05:52:16;22.71;70.17
70234;DHT22;57622;42.630;23.378;2022-08-25T05:54:42;22.71;70.06
70234;DHT22;57622;42.630;23.378;2022-08-25T05:57:07;22.81;69.71
70234;DHT22;57622;42.630;23.378;2022-08-25T05:59:33;22.83;69.55
70234;DHT22;57622;42.630;23.378;2022-08-25T06:01:59;22.88;69.81
70234;DHT22;57622;42.630;23.378;2022-08-25T06:04:47;22.88;69.66
70234;DHT22;57622;42.630;23.378;2022-08-25T06:07:13;22.92;69.68
70234;DHT22;57622;42.630;23.378;2022-08-25T06:09:40;22.95;69.85
70234;DHT22;57622;42.630;23.378;2022-08-25T06:12:07;22.95;69.81
70234;DHT22;57622;42.630;23.378;2022-08-25T06:14:33;23.12;69.58
70234;DHT22;57622;42.630;23.378;2022-08-25T06:16:59;23.18;69.34
70234;DHT22;57622;42.630;23.378;2022-08-25T06:19:25;23.16;69.54
70234;DHT22;57622;42.630;23.378;2022-08-25T06:21:56;23.18;68.86
70234;DHT22;57622;42.630;23.378;2022-08-25T06:24:25;23.14;69.34
70234;DHT22;57622;42.630;23.378;2022-08-25T06:26:51;23.28;69.25
70234;DHT22;57622;42.630;23.378;2022-08-25T06:29:17;23.35;68.57
70234;DHT22;57622;42.630;23.378;2022-08-25T06:31:43;23.39;68.41
70234;DHT22;57622;42.630;23.378;2022-08-25T06:34:10;23.49;69.07
70234;DHT22;57622;42.630;23.378;2022-08-25T06:36:35;23.58;68.17
70234;DHT22;57622;42.630;23.378;2022-08-25T06:39:01;23.63;68.88
70234;DHT22;57622;42.630;23.378;2022-08-25T06:41:26;23.73;68.23
70234;DHT22;57622;42.630;23.378;2022-08-25T06:43:52;23.71;67.74
70234;DHT22;57622;42.630;23.378;2022-08-25T06:46:20;23.89;67.23
70234;DHT22;57622;42.630;23.378;2022-08-25T06:48:47;23.89;67.84
70234;DHT22;57622;42.630;23.378;2022-08-25T06:51:15;24.13;67.06
70234;DHT22;57622;42.630;23.378;2022-08-25T06:53:42;24.14;65.64
70234;DHT22;57622;42.630;23.378;2022-08-25T06:56:09;24.27;65.26
70234;DHT22;57622;42.630;23.378;2022-08-25T06:58:36;24.41;65.77
70234;DHT22;57622;42.630;23.378;2022-08-25T07:01:13;24.59;64.64
70234;DHT22;57622;42.630;23.378;2022-08-25T07:03:39;24.64;63.70
70234;DHT22;57622;42.630;23.378;2022-08-25T07:06:06;24.71;64.41
70234;DHT22;57622;42.630;23.378;2022-08-25T07:08:31;24.64;64.35
70234;DHT22;57622;42.630;23.378;2022-08-25T07:10:57;24.65;63.47
70234;DHT22;57622;42.630;23.378;2022-08-25T07:13:23;24.44;64.03
70234;DHT22;57622;42.630;23.378;2022-08-25T07:15:53;24.42;63.74
70234;DHT22;57622;42.630;23.378;2022-08-25T07:18:19;24.32;63.95
70234;DHT22;57622;42.630;23.378;2022-08-25T07:20:44;24.30;63.99
70234;DHT22;57622;42.630;23.378;2022-08-25T07:23:10;24.31;64.50
70234;DHT22;57622;42.630;23.378;2022-08-25T07:25:36;24.49;63.74
70234;DHT22;57622;42.630;23.378;2022-08-25T07:28:02;24.48;65.18
70234;DHT22;57622;42.630;23.378;2022-08-25T07:30:28;24.69;64.20
70234;DHT22;57622;42.630;23.378;2022-08-25T07:32:54;24.82;62.80
70234;DHT22;57622;42.630;23.378;2022-08-25T07:35:19;24.83;62.04
70234;DHT22;57622;42.630;23.378;2022-08-25T07:37:52;25.02;63.56
70234;DHT22;57622;42.630;23.378;2022-08-25T07:40:39;25.09;62.29
70234;DHT22;57622;42.630;23.378;2022-08-25T07:43:06;25.13;61.58
70234;DHT22;57622;42.630;23.378;2022-08-25T07:45:37;25.09;61.54
70234;DHT22;57622;42.630;23.378;2022-08-25T07:48:05;25.30;62.47
70234;DHT22;57622;42.630;23.378;2022-08-25T07:50:32;25.55;61.75
70234;DHT22;57622;42.630;23.378;2022-08-25T07:52:58;25.65;60.93
70234;DHT22;57622;42.630;23.378;2022-08-25T07:55:25;25.82;61.25
70234;DHT22;57622;42.630;23.378;2022-08-25T07:57:52;25.92;61.48
70234;DHT22;57622;42.630;23.378;2022-08-25T08:00:18;25.82;60.19
70234;DHT22;57622;42.630;23.378;2022-08-25T08:02:44;25.89;60.74
70234;DHT22;57622;42.630;23.378;2022-08-25T08:05:12;26.08;60.32
70234;DHT22;57622;42.630;23.378;2022-08-25T08:07:37;26.19;58.83
70234;DHT22;57622;42.630;23.378;2022-08-25T08:10:04;26.35;59.25
70234;DHT22;57622;42.630;23.378;2022-08-25T08:12:30;26.43;58.59
70234;DHT22;57622;42.630;23.378;2022-08-25T08:14:57;26.50;58.28
70234;DHT22;57622;42.630;23.378;2022-08-25T08:17:23;26.60;57.34
70234;DHT22;57622;42.630;23.378;2022-08-25T08:19:48;26.74;56.99
70234;DHT22;57622;42.630;23.378;2022-08-25T08:22:14;26.81;57.62
70234;DHT22;57622;42.630;23.378;2022-08-25T08:24:41;26.70;58.19
70234;DHT22;57622;42.630;23.378;2022-08-25T08:27:10;26.65;57.45
70234;DHT22;57622;42.630;23.378;2022-08-25T08:29:37;26.73;57.09
70234;DHT22;57622;42.630;23.378;2022-08-25T08:32:04;26.97;57.22
70234;DHT22;57622;42.630;23.378;2022-08-25T08:34:30;26.98;57.08
70234;DHT22;57622;42.630;23.378;2022-08-25T08:36:56;26.91;58.14
70234;DHT22;57622;42.630;23.378;2022-08-25T08:39:22;27.11;54.81
70234;DHT22;57622;42.630;23.378;2022-08-25T08:48:02;27.58;55.95
70234;DHT22;57622;42.630;23.378;2022-08-25T08:56:12;27.88;49.07
70234;DHT22;57622;42.630;23.378;2022-08-25T09:01:09;27.65;50.58
70234;DHT22;57622;42.630;23.378;2022-08-25T09:03:40;27.70;51.28
70234;DHT22;57622;42.630;23.378;2022-08-25T09:06:11;27.78;51.70
70234;DHT22;57622;42.630;23.378;2022-08-25T09:08:40;28.04;48.99
70234;DHT22;57622;42.630;23.378;2022-08-25T09:13:49;27.72;48.39
70234;DHT22;57622;42.630;23.378;2022-08-25T09:16:31;27.62;49.48
70234;DHT22;57622;42.630;23.378;2022-08-25T09:19:36;27.46;48.82
70234;DHT22;57622;42.630;23.378;2022-08-25T09:30:22;27.55;49.39
70234;DHT22;57622;42.630;23.378;2022-08-25T09:32:53;27.32;50.13
70234;DHT22;57622;42.630;23.378;2022-08-25T09:35:31;27.38;49.68
70234;DHT22;57622;42.630;23.378;2022-08-25T09:38:00;27.35;51.71
70234;DHT22;57622;42.630;23.378;2022-08-25T09:40:26;27.37;49.93
70234;DHT22;57622;42.630;23.378;2022-08-25T09:42:56;27.58;50.59
70234;DHT22;57622;42.630;23.378;2022-08-25T09:47:59;27.86;47.03
70234;DHT22;57622;42.630;23.378;2022-08-25T09:50:29;28.16;48.68
70234;DHT22;57622;42.630;23.378;2022-08-25T09:53:11;28.21;48.63
70234;DHT22;57622;42.630;23.378;2022-08-25T09:55:40;28.09;48.19
70234;DHT22;57622;42.630;23.378;2022-08-25T09:58:16;28.00;47.92
70234;DHT22;57622;42.630;23.378;2022-08-25T10:00:43;27.80;47.56
70234;DHT22;57622;42.630;23.378;2022-08-25T10:03:21;27.66;48.79
70234;DHT22;57622;42.630;23.378;2022-08-25T10:06:07;27.52;50.04
70234;DHT22;57622;42.630;23.378;2022-08-25T10:11:11;27.79;49.63
70234;DHT22;57622;42.630;23.378;2022-08-25T10:13:46;28.11;51.13
70234;DHT22;57622;42.630;23.378;2022-08-25T10:18:37;28.13;48.96
70234;DHT22;57622;42.630;23.378;2022-08-25T10:21:14;27.89;48.75
70234;DHT22;57622;42.630;23.378;2022-08-25T10:23:51;27.89;49.52
70234;DHT22;57622;42.630;23.378;2022-08-25T10:32:14;28.07;49.20
70234;DHT22;57622;42.630;23.378;2022-08-25T10:34:49;28.25;49.16
70234;DHT22;57622;42.630;23.378;2022-08-25T10:37:25;28.49;48.26
70234;DHT22;57622;42.630;23.378;2022-08-25T10:45:05;28.36;48.15
70234;DHT22;57622;42.630;23.378;2022-08-25T10:50:42;28.14;47.64
70234;DHT22;57622;42.630;23.378;2022-08-25T10:55:48;27.67;47.34
70234;DHT22;57622;42.630;23.378;2022-08-25T11:04:47;27.97;47.07
70234;DHT22;57622;42.630;23.378;2022-08-25T11:09:47;28.58;47.11
70234;DHT22;57622;42.630;23.378;2022-08-25T11:12:24;28.86;46.26
70234;DHT22;57622;42.630;23.378;2022-08-25T11:14:54;28.94;43.76
70234;DHT22;57622;42.630;23.378;2022-08-25T11:17:38;28.80;44.39
70234;DHT22;57622;42.630;23.378;2022-08-25T11:20:10;28.92;46.32
70234;DHT22;57622;42.630;23.378;2022-08-25T11:22:42;28.80;44.72
70234;DHT22;57622;42.630;23.378;2022-08-25T11:25:32;28.88;44.43
70234;DHT22;57622;42.630;23.378;2022-08-25T11:28:05;28.58;45.01
70234;DHT22;57622;42.630;23.378;2022-08-25T11:30:32;28.69;46.32
70234;DHT22;57622;42.630;23.378;2022-08-25T11:32:57;28.71;47.27
70234;DHT22;57622;42.630;23.378;2022-08-25T11:35:37;28.51;46.91
70234;DHT22;57622;42.630;23.378;2022-08-25T11:43:45;27.79;47.67
70234;DHT22;57622;42.630;23.378;2022-08-25T11:52:05;28.09;48.26
70234;DHT22;57622;42.630;23.378;2022-08-25T11:54:36;28.04;47.82
70234;DHT22;57622;42.630;23.378;2022-08-25T11:57:22;28.09;47.35
70234;DHT22;57622;42.630;23.378;2022-08-25T12:07:58;28.25;47.68
70234;DHT22;57622;42.630;23.378;2022-08-25T12:10:56;28.33;47.16
70234;DHT22;57622;42.630;23.378;2022-08-25T12:16:03;28.13;47.12
70234;DHT22;57622;42.630;23.378;2022-08-25T12:23:30;28.30;46.33
70234;DHT22;57622;42.630;23.378;2022-08-25T12:38:11;28.45;45.52
70234;DHT22;57622;42.630;23.378;2022-08-25T12:40:56;28.16;46.12
70234;DHT22;57622;42.630;23.378;2022-08-25T12:43:35;28.17;46.70
70234;DHT22;57622;42.630;23.378;2022-08-25T12:48:55;28.16;45.88
70234;DHT22;57622;42.630;23.378;2022-08-25T12:51:27;28.14;45.62
70234;DHT22;57622;42.630;23.378;2022-08-25T12:56:41;28.03;45.31
70234;DHT22;57622;42.630;23.378;2022-08-25T12:59:31;27.99;45.73
70234;DHT22;57622;42.630;23.378;2022-08-25T13:11:00;27.63;46.55
70234;DHT22;57622;42.630;23.378;2022-08-25T13:13:55;27.49;46.81
70234;DHT22;57622;42.630;23.378;2022-08-25T13:16:27;27.41;46.91
70234;DHT22;57622;42.630;23.378;2022-08-25T13:18:54;27.42;46.70
70234;DHT22;57622;42.630;23.378;2022-08-25T13:21:28;27.49;46.84
70234;DHT22;57622;42.630;23.378;2022-08-25T13:23:57;27.49;46.85
70234;DHT22;57622;42.630;23.378;2022-08-25T13:26:30;27.52;46.33
70234;DHT22;57622;42.630;23.378;2022-08-25T13:29:00;27.79;46.33
70234;DHT22;57622;42.630;23.378;2022-08-25T13:31:27;27.85;45.82
70234;DHT22;57622;42.630;23.378;2022-08-25T13:34:03;27.80;46.02
70234;DHT22;57622;42.630;23.378;2022-08-25T13:36:33;27.66;46.40
70234;DHT22;57622;42.630;23.378;2022-08-25T13:39:23;27.55;46.78
70234;DHT22;57622;42.630;23.378;2022-08-25T13:41:53;27.58;46.66
70234;DHT22;57622;42.630;23.378;2022-08-25T13:44:20;27.56;46.30
70234;DHT22;57622;42.630;23.378;2022-08-25T13:46:47;27.56;46.20
70234;DHT22;57622;42.630;23.378;2022-08-25T13:49:28;27.49;46.26
70234;DHT22;57622;42.630;23.378;2022-08-25T13:51:54;27.38;46.73
70234;DHT22;57622;42.630;23.378;2022-08-25T13:54:27;27.55;46.58
70234;DHT22;57622;42.630;23.378;2022-08-25T13:57:12;27.53;46.41
70234;DHT22;57622;42.630;23.378;2022-08-25T13:59:40;27.49;45.85
70234;DHT22;57622;42.630;23.378;2022-08-25T14:02:09;27.55;46.02
70234;DHT22;57622;42.630;23.378;2022-08-25T14:07:14;27.32;47.32
70234;DHT22;57622;42.630;23.378;2022-08-25T14:12:37;27.35;46.45
70234;DHT22;57622;42.630;23.378;2022-08-25T14:17:36;27.31;46.16
70234;DHT22;57622;42.630;23.378;2022-08-25T14:20:04;27.18;46.41
70234;DHT22;57622;42.630;23.378;2022-08-25T14:22:30;27.15;46.85
70234;DHT22;57622;42.630;23.378;2022-08-25T14:24:56;27.07;47.20
70234;DHT22;57622;42.630;23.378;2022-08-25T14:27:21;27.08;47.03
70234;DHT22;57622;42.630;23.378;2022-08-25T14:29:47;26.90;46.78
70234;DHT22;57622;42.630;23.378;2022-08-25T14:32:14;26.83;47.40
70234;DHT22;57622;42.630;23.378;2022-08-25T14:34:41;26.80;47.35
70234;DHT22;57622;42.630;23.378;2022-08-25T14:37:16;26.83;47.09
70234;DHT22;57622;42.630;23.378;2022-08-25T14:39:43;26.80;47.24
70234;DHT22;57622;42.630;23.378;2022-08-25T14:42:09;26.81;47.11
70234;DHT22;57622;42.630;23.378;2022-08-25T14:44:34;26.83;46.73
70234;DHT22;57622;42.630;23.378;2022-08-25T14:47:00;26.71;47.92
70234;DHT22;57622;42.630;23.378;2022-08-25T14:49:33;26.73;47.28
70234;DHT22;57622;42.630;23.378;2022-08-25T14:52:15;26.67;47.15
70234;DHT22;57622;42.630;23.378;2022-08-25T14:54:42;26.64;47.28
70234;DHT22;57622;42.630;23.378;2022-08-25T14:57:09;26.63;47.12
70234;DHT22;57622;42.630;23.378;2022-08-25T14:59:34;26.47;47.32
70234;DHT22;57622;42.630;23.378;2022-08-25T15:01:59;26.47;47.32
70234;DHT22;57622;42.630;23.378;2022-08-25T15:04:27;26.43;47.61
70234;DHT22;57622;42.630;23.378;2022-08-25T15:06:55;26.43;47.49
70234;DHT22;57622;42.630;23.378;2022-08-25T15:09:21;26.42;47.39
70234;DHT22;57622;42.630;23.378;2022-08-25T15:11:49;26.19;47.53
70234;DHT22;57622;42.630;23.378;2022-08-25T15:14:17;26.08;47.95
70234;DHT22;57622;42.630;23.378;2022-08-25T15:16:54;26.01;48.16
70234;DHT22;57622;42.630;23.378;2022-08-25T15:19:23;26.01;48.48
70234;DHT22;57622;42.630;23.378;2022-08-25T15:21:49;26.01;48.47
70234;DHT22;57622;42.630;23.378;2022-08-25T15:24:16;26.08;48.84
70234;DHT22;57622;42.630;23.378;2022-08-25T15:26:49;25.92;48.65
70234;DHT22;57622;42.630;23.378;2022-08-25T15:29:15;25.92;48.47
70234;DHT22;57622;42.630;23.378;2022-08-25T15:31:42;25.78;48.56
70234;DHT22;57622;42.630;23.378;2022-08-25T15:34:07;25.84;49.05
70234;DHT22;57622;42.630;23.378;2022-08-25T15:36:34;25.78;49.02
70234;DHT22;57622;42.630;23.378;2022-08-25T15:39:00;25.77;48.95
70234;DHT22;57622;42.630;23.378;2022-08-25T15:41:26;25.61;49.11
70234;DHT22;57622;42.630;23.378;2022-08-25T15:43:54;25.64;49.74
70234;DHT22;57622;42.630;23.378;2022-08-25T15:46:20;25.70;49.92
70234;DHT22;57622;42.630;23.378;2022-08-25T15:48:48;25.74;49.21
70234;DHT22;57622;42.630;23.378;2022-08-25T15:51:15;25.75;49.90
70234;DHT22;57622;42.630;23.378;2022-08-25T15:53:40;25.77;49.44
70234;DHT22;57622;42.630;23.378;2022-08-25T15:56:06;25.70;49.39
70234;DHT22;57622;42.630;23.378;2022-08-25T15:58:32;25.75;49.63
70234;DHT22;57622;42.630;23.378;2022-08-25T16:00:59;25.73;49.81
70234;DHT22;57622;42.630;23.378;2022-08-25T16:03:25;25.70;49.54
70234;DHT22;57622;42.630;23.378;2022-08-25T16:05:51;25.63;49.45
70234;DHT22;57622;42.630;23.378;2022-08-25T16:08:17;25.71;49.63
70234;DHT22;57622;42.630;23.378;2022-08-25T16:10:43;25.65;49.44
70234;DHT22;57622;42.630;23.378;2022-08-25T16:13:09;25.71;49.70
70234;DHT22;57622;42.630;23.378;2022-08-25T16:15:35;25.63;50.32
70234;DHT22;57622;42.630;23.378;2022-08-25T16:18:02;25.71;50.12
70234;DHT22;57622;42.630;23.378;2022-08-25T16:20:29;25.75;49.87
70234;DHT22;57622;42.630;23.378;2022-08-25T16:22:55;25.77;49.58
70234;DHT22;57622;42.630;23.378;2022-08-25T16:25:22;25.58;49.85
70234;DHT22;57622;42.630;23.378;2022-08-25T16:27:48;25.57;50.30
70234;DHT22;57622;42.630;23.378;2022-08-25T16:30:14;25.54;50.27
70234;DHT22;57622;42.630;23.378;2022-08-25T16:32:39;25.46;50.68
70234;DHT22;57622;42.630;23.378;2022-08-25T16:35:05;25.53;50.32
70234;DHT22;57622;42.630;23.378;2022-08-25T16:37:32;25.51;51.67
70234;DHT22;57622;42.630;23.378;2022-08-25T16:39:58;25.44;50.86
70234;DHT22;57622;42.630;23.378;2022-08-25T16:42:24;25.57;50.49
70234;DHT22;57622;42.630;23.378;2022-08-25T16:44:50;25.58;50.28
70234;DHT22;57622;42.630;23.378;2022-08-25T16:47:16;25.51;50.70
70234;DHT22;57622;42.630;23.378;2022-08-25T16:49:41;25.61;50.52
70234;DHT22;57622;42.630;23.378;2022-08-25T16:52:07;25.63;50.21
70234;DHT22;57622;42.630;23.378;2022-08-25T16:54:52;25.54;50.45
70234;DHT22;57622;42.630;23.378;2022-08-25T16:57:36;25.55;50.59
70234;DHT22;57622;42.630;23.378;2022-08-25T17:00:04;25.58;50.42
70234;DHT22;57622;42.630;23.378;2022-08-25T17:02:30;25.54;50.83
70234;DHT22;57622;42.630;23.378;2022-08-25T17:04:56;25.50;51.10
70234;DHT22;57622;42.630;23.378;2022-08-25T17:07:22;25.53;51.28
70234;DHT22;57622;42.630;23.378;2022-08-25T17:09:47;25.51;51.52
70234;DHT22;57622;42.630;23.378;2022-08-25T17:12:12;25.51;51.87
70234;DHT22;57622;42.630;23.378;2022-08-25T17:14:39;25.50;52.07
70234;DHT22;57622;42.630;23.378;2022-08-25T17:17:05;25.40;52.60
70234;DHT22;57622;42.630;23.378;2022-08-25T17:19:30;25.33;53.28
70234;DHT22;57622;42.630;23.378;2022-08-25T17:21:57;25.31;52.88
70234;DHT22;57622;42.630;23.378;2022-08-25T17:24:22;25.26;52.98
70234;DHT22;57622;42.630;23.378;2022-08-25T17:26:49;25.19;53.34